Time;durP1;ratioP1;P1;durP2;ratioP2;P2;SDS_P1;SDS_P2;PMS_P1;PMS_P2;Temp;Humidity;BMP_temperature;BMP_pressure;BME280_temperature;BME280_humidity;BME280_pressure;Samples;Min_cycle;Max_cycle;Signal;HPM_P1;HPM_P2
2023/03/18 00:02:22;;;;;;;2.80;1.70;;;16.60;77.20;;;;;;6190978;23;20170;-94
2023/03/18 00:04:54;;;;;;;3.80;1.73;;;16.60;82.30;;;;;;6191389;23;20166;-94
2023/03/18 00:07:26;;;;;;;4.30;2.27;;;16.80;77.50;;;;;;6191353;23;20180;-93
2023/03/18 00:09:59;;;;;;;3.03;1.80;;;16.90;75.60;;;;;;6192779;23;20166;-93
2023/03/18 00:12:31;;;;;;;4.40;2.00;;;17.00;76.60;;;;;;6192603;23;20169;-93
2023/03/18 00:15:02;;;;;;;4.13;2.10;;;17.10;76.00;;;;;;6193047;23;20204;-94
2023/03/18 00:17:32;;;;;;;3.20;2.03;;;17.00;75.90;;;;;;6193267;23;20204;-94
2023/03/18 00:20:05;;;;;;;5.77;1.90;;;17.10;74.60;;;;;;6198078;23;20197;-94
2023/03/18 00:22:38;;;;;;;3.10;1.80;;;17.10;76.20;;;;;;6193629;23;20170;-95
2023/03/18 00:25:13;;;;;;;5.40;1.90;;;17.00;75.60;;;;;;6190562;23;20204;-95
2023/03/18 00:27:45;;;;;;;3.80;2.03;;;16.80;76.40;;;;;;6189516;23;20180;-93
2023/03/18 00:30:16;;;;;;;2.90;1.70;;;16.50;78.60;;;;;;6168196;23;20177;-96
2023/03/18 00:32:47;;;;;;;5.57;2.07;;;16.40;79.30;;;;;;6192964;23;20240;-96
2023/03/18 00:35:18;;;;;;;7.93;2.13;;;16.20;86.00;;;;;;6193373;23;20679;-95
2023/03/18 00:37:49;;;;;;;4.73;2.23;;;16.10;84.00;;;;;;6194839;23;20557;-95
2023/03/18 00:40:28;;;;;;;4.27;2.17;;;16.10;81.50;;;;;;6193273;23;20176;-95
2023/03/18 00:43:06;;;;;;;3.93;2.00;;;16.00;79.70;;;;;;6193388;23;20165;-96
2023/03/18 00:45:39;;;;;;;4.33;2.03;;;15.90;81.90;;;;;;6196106;23;20172;-96
2023/03/18 00:48:10;;;;;;;6.70;2.60;;;15.70;81.40;;;;;;6195825;23;20184;-96
2023/03/18 00:50:43;;;;;;;3.07;1.87;;;15.60;82.50;;;;;;6194528;23;20220;-96
2023/03/18 00:53:15;;;;;;;3.80;2.07;;;15.40;83.60;;;;;;6193384;23;20183;-94
2023/03/18 00:55:48;;;;;;;3.77;1.90;;;15.30;85.40;;;;;;6194023;23;20170;-95
2023/03/18 00:58:19;;;;;;;6.17;2.27;;;15.20;83.60;;;;;;6193091;23;20212;-95
2023/03/18 01:00:51;;;;;;;2.83;1.93;;;15.20;84.00;;;;;;6192012;23;20169;-94
2023/03/18 01:03:24;;;;;;;2.60;1.77;;;15.10;81.90;;;;;;6193189;23;20662;-94
2023/03/18 01:05:55;;;;;;;3.07;2.27;;;15.00;82.70;;;;;;6192792;23;20196;-94
2023/03/18 01:08:26;;;;;;;5.67;2.10;;;14.90;82.20;;;;;;6191900;23;20228;-95
2023/03/18 01:10:59;;;;;;;4.13;1.90;;;14.90;83.60;;;;;;6203952;23;20185;-94
2023/03/18 01:13:30;;;;;;;6.43;2.33;;;14.80;87.90;;;;;;6212158;23;20215;-93
2023/03/18 01:16:02;;;;;;;2.80;2.10;;;14.70;86.40;;;;;;6211525;23;20169;-93
2023/03/18 01:18:33;;;;;;;4.23;2.10;;;14.60;86.10;;;;;;6191587;23;20241;-92
2023/03/18 01:21:05;;;;;;;5.10;1.97;;;14.50;86.80;;;;;;6194438;23;20169;-94
2023/03/18 01:26:14;;;;;;;5.73;2.30;;;14.40;88.10;;;;;;6208282;23;20257;-90
2023/03/18 01:28:46;;;;;;;4.67;1.80;;;14.30;92.40;;;;;;6218820;23;20236;-90
2023/03/18 01:31:18;;;;;;;5.83;1.80;;;14.20;91.80;;;;;;6192596;23;20176;-90
2023/03/18 01:33:53;;;;;;;3.33;2.00;;;14.10;92.00;;;;;;6218794;23;20183;-90
2023/03/18 01:36:31;;;;;;;5.43;2.57;;;13.90;93.00;;;;;;6224986;23;20199;-91
2023/03/18 01:39:02;;;;;;;5.20;1.60;;;13.80;93.70;;;;;;6191320;23;20208;-93
2023/03/18 01:41:35;;;;;;;5.57;2.03;;;13.60;95.40;;;;;;6222489;23;20207;-94
2023/03/18 01:44:09;;;;;;;4.10;2.10;;;13.50;95.40;;;;;;6195005;23;20483;-93
2023/03/18 01:46:41;;;;;;;5.07;2.20;;;13.40;95.60;;;;;;6219247;23;20183;-93
2023/03/18 01:49:17;;;;;;;4.23;1.80;;;13.30;94.70;;;;;;6221945;23;20184;-94
2023/03/18 01:51:53;;;;;;;3.37;1.80;;;13.20;95.40;;;;;;6225381;23;20684;-94
2023/03/18 01:54:26;;;;;;;3.97;2.07;;;13.10;95.40;;;;;;6223246;23;20168;-95
2023/03/18 01:56:59;;;;;;;3.97;1.60;;;13.00;95.40;;;;;;6221549;23;20192;-95
2023/03/18 01:59:33;;;;;;;5.23;1.90;;;12.90;95.80;;;;;;6223787;23;20177;-95
2023/03/18 02:02:09;;;;;;;5.70;2.03;;;12.80;95.90;;;;;;6225727;23;20219;-96
2023/03/18 02:04:46;;;;;;;6.37;2.20;;;12.70;95.90;;;;;;6221822;23;20493;-93
2023/03/18 02:07:18;;;;;;;9.90;2.43;;;12.70;96.70;;;;;;6222075;23;20210;-93
2023/03/18 02:09:51;;;;;;;6.23;2.53;;;12.50;97.30;;;;;;6226213;23;20168;-94
2023/03/18 02:12:28;;;;;;;5.03;2.20;;;12.50;97.90;;;;;;6224223;23;20176;-94
2023/03/18 02:14:59;;;;;;;4.50;2.20;;;12.30;98.70;;;;;;6220458;23;20160;-93
2023/03/18 02:17:34;;;;;;;4.20;2.20;;;12.30;98.30;;;;;;6220440;23;20204;-93
2023/03/18 02:20:17;;;;;;;4.70;2.30;;;12.10;98.30;;;;;;6219847;23;20183;-96
2023/03/18 02:22:56;;;;;;;4.97;2.23;;;12.10;98.40;;;;;;6224732;23;20179;-96
2023/03/18 02:25:36;;;;;;;3.93;1.87;;;12.00;98.80;;;;;;6233424;23;20235;-96
2023/03/18 02:28:15;;;;;;;3.87;2.07;;;11.90;98.80;;;;;;6229648;23;20242;-96
2023/03/18 02:30:49;;;;;;;3.83;2.30;;;11.80;99.20;;;;;;6223654;23;20181;-96
2023/03/18 02:33:23;;;;;;;3.10;2.30;;;11.80;99.30;;;;;;6199167;23;20353;-96
2023/03/18 02:36:03;;;;;;;6.10;2.20;;;11.70;99.90;;;;;;6214077;23;20204;-96
2023/03/18 02:38:35;;;;;;;4.03;2.27;;;11.60;99.90;;;;;;6229552;23;20354;-96
2023/03/18 02:41:07;;;;;;;4.60;2.20;;;11.60;99.90;;;;;;6224290;23;20179;-96
2023/03/18 02:43:41;;;;;;;5.97;2.10;;;11.50;99.90;;;;;;6219219;23;20187;-95
2023/03/18 02:46:24;;;;;;;3.20;2.10;;;11.50;99.90;;;;;;6218884;23;20164;-96
2023/03/18 02:48:56;;;;;;;3.50;2.40;;;11.50;99.90;;;;;;6219022;23;20177;-96
2023/03/18 02:51:28;;;;;;;4.30;1.90;;;11.40;99.90;;;;;;6193937;23;20195;-96
2023/03/18 02:54:06;;;;;;;7.50;2.80;;;11.40;99.90;;;;;;6220981;23;20165;-95
2023/03/18 02:56:38;;;;;;;4.07;2.20;;;11.30;99.90;;;;;;6225487;23;20472;-93
2023/03/18 02:59:12;;;;;;;5.60;2.80;;;11.20;99.90;;;;;;6220090;23;20196;-95
2023/03/18 03:01:46;;;;;;;4.10;2.50;;;11.20;99.90;;;;;;6219410;23;20234;-95
2023/03/18 03:04:19;;;;;;;4.03;2.60;;;11.20;99.90;;;;;;6219540;23;20168;-96
2023/03/18 03:06:51;;;;;;;5.27;2.40;;;11.10;99.90;;;;;;6224069;23;20606;-96
2023/03/18 03:09:24;;;;;;;3.10;2.03;;;11.10;99.90;;;;;;6219366;23;20180;-96
2023/03/18 03:11:55;;;;;;;4.83;2.30;;;11.10;99.90;;;;;;6218477;23;20499;-94
2023/03/18 03:14:28;;;;;;;5.93;2.77;;;11.10;99.90;;;;;;6220647;23;20161;-94
2023/03/18 03:17:00;;;;;;;4.20;2.50;;;11.00;99.90;;;;;;6221833;23;20164;-94
2023/03/18 03:19:32;;;;;;;6.47;2.63;;;11.00;99.90;;;;;;6227485;23;20172;-95
2023/03/18 03:22:03;;;;;;;3.60;2.00;;;11.00;99.90;;;;;;6237108;23;20224;-93
2023/03/18 03:24:34;;;;;;;4.23;2.10;;;11.00;99.90;;;;;;6235249;23;20228;-94
2023/03/18 03:27:05;;;;;;;4.00;2.53;;;10.90;99.90;;;;;;6220323;23;20173;-94
2023/03/18 03:29:38;;;;;;;5.50;2.57;;;11.00;99.90;;;;;;6216883;23;20203;-93
2023/03/18 03:32:09;;;;;;;6.20;2.70;;;11.00;99.90;;;;;;6216481;23;20180;-93
2023/03/18 03:34:40;;;;;;;3.20;1.83;;;10.90;99.90;;;;;;6215736;23;20180;-93
2023/03/18 03:37:12;;;;;;;3.63;1.90;;;11.00;99.90;;;;;;6218218;23;20227;-95
2023/03/18 03:39:43;;;;;;;3.63;1.83;;;11.00;99.90;;;;;;6219662;23;20490;-93
2023/03/18 03:42:14;;;;;;;6.27;2.00;;;11.00;99.90;;;;;;6220462;23;20556;-94
2023/03/18 03:44:47;;;;;;;3.30;1.90;;;11.00;99.90;;;;;;6218217;23;20184;-96
2023/03/18 03:47:20;;;;;;;2.47;1.67;;;11.00;99.90;;;;;;6218333;23;20168;-94
2023/03/18 03:49:51;;;;;;;2.90;1.80;;;10.90;99.90;;;;;;6221139;23;20184;-94
2023/03/18 03:52:22;;;;;;;4.30;1.90;;;10.90;99.90;;;;;;6220704;23;20168;-93
2023/03/18 03:54:54;;;;;;;2.73;1.67;;;10.90;99.90;;;;;;6218498;23;20177;-89
2023/03/18 03:57:25;;;;;;;4.57;1.77;;;10.90;99.90;;;;;;6216306;23;20270;-90
2023/03/18 03:59:59;;;;;;;3.03;1.73;;;10.80;99.90;;;;;;6219011;23;20620;-90
2023/03/18 04:02:30;;;;;;;4.63;2.00;;;10.80;99.90;;;;;;6219599;23;20196;-89
2023/03/18 04:05:03;;;;;;;3.47;1.93;;;10.70;99.90;;;;;;6194260;23;20243;-92
2023/03/18 04:07:34;;;;;;;4.00;2.00;;;10.70;99.90;;;;;;6219110;23;20243;-93
2023/03/18 04:10:08;;;;;;;2.83;1.90;;;10.80;99.90;;;;;;6220056;23;20172;-94
2023/03/18 04:12:40;;;;;;;2.67;2.03;;;10.70;99.90;;;;;;6191274;23;20203;-95
2023/03/18 04:15:16;;;;;;;3.97;1.90;;;10.70;99.90;;;;;;6221836;23;20238;-90
2023/03/18 04:17:47;;;;;;;4.70;1.90;;;10.70;99.90;;;;;;6220177;23;20176;-93
2023/03/18 04:20:18;;;;;;;3.60;2.10;;;10.70;99.90;;;;;;6225185;23;20283;-93
2023/03/18 04:22:49;;;;;;;3.77;2.07;;;10.70;99.90;;;;;;6224368;23;20219;-94
2023/03/18 04:25:20;;;;;;;3.93;2.00;;;10.60;99.90;;;;;;6224386;23;20564;-93
2023/03/18 04:27:53;;;;;;;4.50;2.10;;;10.60;99.90;;;;;;6220592;23;20500;-93
2023/03/18 04:30:27;;;;;;;4.63;2.10;;;10.60;99.90;;;;;;6220873;23;20176;-94
2023/03/18 04:33:00;;;;;;;3.50;2.30;;;10.60;99.90;;;;;;6222054;23;20168;-94
2023/03/18 04:35:31;;;;;;;6.93;2.13;;;10.50;99.90;;;;;;6221752;23;20259;-94
2023/03/18 04:38:03;;;;;;;5.73;1.93;;;10.60;99.90;;;;;;6220210;23;20222;-94
2023/03/18 04:40:34;;;;;;;2.60;1.73;;;10.60;99.90;;;;;;6199592;23;20206;-94
2023/03/18 04:43:05;;;;;;;3.80;1.80;;;10.70;99.90;;;;;;6225754;23;20218;-94
2023/03/18 04:45:39;;;;;;;2.80;1.67;;;10.80;99.90;;;;;;6225298;23;20169;-96
2023/03/18 04:48:11;;;;;;;2.60;1.83;;;10.80;99.90;;;;;;6225124;23;20187;-96
2023/03/18 04:50:43;;;;;;;5.97;2.50;;;10.80;99.90;;;;;;6226684;23;20181;-95
2023/03/18 04:53:15;;;;;;;5.10;3.00;;;10.80;99.90;;;;;;6231847;23;20176;-94
2023/03/18 04:55:46;;;;;;;3.83;2.53;;;10.70;99.90;;;;;;6242163;23;20207;-96
2023/03/18 04:58:19;;;;;;;3.23;2.23;;;10.70;99.90;;;;;;6241567;23;20188;-95
2023/03/18 05:00:52;;;;;;;1.70;1.37;;;10.70;99.90;;;;;;6242665;23;20183;-95
2023/03/18 05:03:24;;;;;;;3.30;1.73;;;10.60;99.90;;;;;;6243401;23;20180;-95
2023/03/18 05:05:55;;;;;;;2.87;1.50;;;10.60;99.90;;;;;;6241913;23;20174;-93
2023/03/18 05:08:28;;;;;;;3.00;1.50;;;10.60;99.90;;;;;;6213026;23;20188;-94
2023/03/18 05:10:59;;;;;;;4.33;1.80;;;10.60;99.90;;;;;;6223831;23;20279;-89
2023/03/18 05:13:31;;;;;;;2.40;1.63;;;10.50;99.90;;;;;;6195984;23;20618;-89
2023/03/18 05:16:05;;;;;;;3.27;1.50;;;10.50;99.90;;;;;;6223553;23;20176;-91
2023/03/18 05:18:36;;;;;;;3.30;1.80;;;10.50;99.90;;;;;;6220723;23;20283;-91
2023/03/18 05:31:52;;;;;;;0.97;0.90;;;10.40;99.90;;;;;;6158322;23;20198;-91
2023/03/18 05:34:25;;;;;;;2.57;1.03;;;10.40;99.90;;;;;;6208935;23;20184;-96
2023/03/18 05:36:58;;;;;;;1.60;1.27;;;10.40;99.90;;;;;;6200638;23;20167;-94
2023/03/18 05:39:30;;;;;;;1.83;1.23;;;10.40;99.90;;;;;;6196356;23;20201;-95
2023/03/18 05:47:28;;;;;;;2.17;1.40;;;10.40;99.90;;;;;;6202744;23;20227;-96
2023/03/18 05:50:01;;;;;;;1.13;1.00;;;10.30;99.90;;;;;;6238639;23;20200;-96
2023/03/18 05:57:59;;;;;;;2.30;1.43;;;10.50;99.90;;;;;;6205305;23;20231;-96
2023/03/18 06:00:31;;;;;;;3.10;1.40;;;10.50;99.90;;;;;;6224387;23;20204;-95
2023/03/18 06:03:04;;;;;;;1.87;1.00;;;10.40;99.90;;;;;;6223963;23;20224;-93
2023/03/18 06:05:35;;;;;;;2.13;1.27;;;10.40;99.90;;;;;;6221277;23;20184;-95
2023/03/18 06:08:06;;;;;;;3.20;1.10;;;10.30;99.90;;;;;;6220203;23;20215;-93
2023/03/18 06:10:39;;;;;;;2.53;1.30;;;10.20;99.90;;;;;;6219115;23;20169;-93
2023/03/18 06:13:12;;;;;;;1.43;1.03;;;10.10;99.90;;;;;;6221310;23;20168;-93
2023/03/18 06:15:43;;;;;;;1.73;1.13;;;10.10;99.90;;;;;;6220517;23;20236;-93
2023/03/18 06:18:18;;;;;;;2.40;1.20;;;10.10;99.90;;;;;;6220164;23;20176;-94
2023/03/18 06:20:49;;;;;;;2.27;1.50;;;10.00;99.90;;;;;;6220811;23;20215;-96
2023/03/18 06:23:21;;;;;;;1.97;1.33;;;10.00;99.90;;;;;;6223807;23;20243;-94
2023/03/18 06:25:53;;;;;;;2.27;1.00;;;9.90;99.90;;;;;;6219583;23;20194;-95
2023/03/18 06:28:24;;;;;;;3.17;1.40;;;9.90;99.90;;;;;;6216029;23;20255;-95
2023/03/18 06:30:58;;;;;;;3.50;1.30;;;9.90;99.90;;;;;;6217883;23;20257;-94
2023/03/18 06:33:31;;;;;;;1.30;1.20;;;9.90;99.90;;;;;;6218592;23;20180;-94
2023/03/18 06:36:03;;;;;;;2.90;1.30;;;9.90;99.90;;;;;;6219397;23;20180;-94
2023/03/18 06:38:34;;;;;;;2.20;1.47;;;9.80;99.90;;;;;;6218422;23;20255;-94
2023/03/18 06:41:07;;;;;;;1.90;1.00;;;9.80;99.90;;;;;;6219346;23;20254;-93
2023/03/18 06:43:38;;;;;;;4.37;1.40;;;9.80;99.90;;;;;;6218991;23;20164;-90
2023/03/18 06:46:10;;;;;;;4.93;1.20;;;9.80;99.90;;;;;;6218768;23;20176;-93
2023/03/18 06:48:43;;;;;;;1.30;1.10;;;9.80;99.90;;;;;;6216259;23;20199;-95
2023/03/18 06:51:14;;;;;;;1.30;1.03;;;9.80;99.90;;;;;;6218160;23;20169;-93
2023/03/18 06:53:45;;;;;;;1.50;1.10;;;9.70;99.90;;;;;;6193988;23;20179;-92
2023/03/18 06:56:16;;;;;;;1.53;0.97;;;9.70;99.90;;;;;;6220126;23;20547;-96
2023/03/18 06:58:48;;;;;;;1.20;1.07;;;9.60;99.90;;;;;;6222032;23;20191;-94
2023/03/18 07:01:19;;;;;;;1.63;1.10;;;9.60;99.90;;;;;;6222974;23;20191;-95
2023/03/18 07:03:53;;;;;;;2.60;1.40;;;9.60;99.90;;;;;;6222054;23;20182;-93
2023/03/18 07:06:24;;;;;;;2.33;1.20;;;9.60;99.90;;;;;;6194393;23;20179;-96
2023/03/18 07:08:56;;;;;;;2.03;1.30;;;9.70;99.90;;;;;;6221127;23;20234;-95
2023/03/18 07:11:27;;;;;;;3.77;1.20;;;9.80;99.90;;;;;;6223445;23;20171;-95
2023/03/18 07:13:58;;;;;;;2.73;1.13;;;9.80;99.90;;;;;;6219520;23;20172;-95
2023/03/18 07:16:29;;;;;;;1.93;1.27;;;9.80;99.90;;;;;;6221846;23;20168;-96
2023/03/18 07:19:03;;;;;;;2.23;1.20;;;9.80;99.90;;;;;;6222096;23;20220;-94
2023/03/18 07:21:35;;;;;;;2.07;1.00;;;9.70;99.90;;;;;;6222101;23;20168;-96
2023/03/18 07:24:07;;;;;;;2.53;1.23;;;9.70;99.90;;;;;;6221535;23;20175;-95
2023/03/18 07:26:38;;;;;;;2.47;1.30;;;9.70;99.90;;;;;;6221262;23;20234;-93
2023/03/18 07:29:09;;;;;;;4.27;1.10;;;9.70;99.90;;;;;;6222294;23;20559;-94
2023/03/18 07:31:42;;;;;;;1.40;1.20;;;9.70;99.90;;;;;;6222776;23;20165;-95
2023/03/18 07:34:16;;;;;;;1.50;1.30;;;9.70;99.90;;;;;;6233669;23;20171;-93
2023/03/18 07:36:48;;;;;;;1.50;1.20;;;9.70;99.90;;;;;;6238846;23;20163;-94
2023/03/18 07:39:19;;;;;;;1.83;1.27;;;9.60;99.90;;;;;;6230703;23;20623;-93
2023/03/18 07:41:51;;;;;;;1.70;1.20;;;9.60;99.90;;;;;;6221788;23;20161;-94
2023/03/18 07:44:23;;;;;;;2.43;1.43;;;9.60;99.90;;;;;;6218728;23;20180;-93
2023/03/18 07:46:55;;;;;;;1.90;1.23;;;9.70;99.90;;;;;;6218246;23;20204;-90
2023/03/18 07:49:27;;;;;;;1.90;1.20;;;9.60;99.90;;;;;;6217619;23;20165;-92
2023/03/18 07:51:59;;;;;;;1.67;1.00;;;9.70;99.90;;;;;;6219263;23;20208;-95
2023/03/18 07:54:30;;;;;;;4.83;1.13;;;9.70;99.90;;;;;;6217143;23;20180;-93
2023/03/18 07:57:02;;;;;;;2.27;1.10;;;9.60;99.90;;;;;;6219107;23;20194;-94
2023/03/18 07:59:33;;;;;;;2.00;1.30;;;9.60;99.90;;;;;;6217117;23;20196;-96
2023/03/18 08:02:06;;;;;;;3.47;1.33;;;9.60;99.90;;;;;;6220587;23;20223;-94
2023/03/18 08:04:39;;;;;;;3.50;1.50;;;9.50;99.90;;;;;;6219401;23;20608;-95
2023/03/18 08:07:11;;;;;;;1.80;1.07;;;9.50;99.90;;;;;;6218901;23;20175;-95
2023/03/18 08:09:43;;;;;;;1.77;1.20;;;9.40;99.90;;;;;;6220887;23;20180;-93
2023/03/18 08:12:15;;;;;;;3.30;1.10;;;9.40;99.90;;;;;;6221279;23;20239;-94
2023/03/18 08:14:50;;;;;;;3.37;1.40;;;9.30;99.90;;;;;;6219210;23;20231;-95
2023/03/18 08:17:22;;;;;;;1.70;1.13;;;9.30;99.90;;;;;;6218821;23;20181;-94
2023/03/18 08:19:56;;;;;;;1.40;1.20;;;9.20;99.90;;;;;;6221178;23;20589;-95
2023/03/18 08:22:28;;;;;;;1.50;1.20;;;9.10;99.90;;;;;;6198317;23;20207;-96
2023/03/18 08:25:00;;;;;;;2.40;1.03;;;9.00;99.90;;;;;;6222320;23;20263;-95
2023/03/18 08:27:36;;;;;;;3.03;1.53;;;9.00;99.90;;;;;;6220808;23;20232;-94
2023/03/18 08:30:10;;;;;;;2.10;1.13;;;8.90;99.90;;;;;;6224159;23;20271;-93
2023/03/18 08:32:41;;;;;;;1.77;1.20;;;8.90;99.90;;;;;;6224651;23;20570;-94
2023/03/18 08:35:15;;;;;;;1.73;1.10;;;8.90;99.90;;;;;;6224718;23;20480;-93
2023/03/18 08:37:50;;;;;;;6.47;1.90;;;8.80;99.90;;;;;;6220373;23;20176;-94
2023/03/18 08:40:23;;;;;;;4.27;1.40;;;8.80;99.90;;;;;;6194112;23;20199;-92
2023/03/18 08:42:55;;;;;;;1.73;1.30;;;8.70;99.90;;;;;;6220920;23;20192;-93
2023/03/18 08:45:27;;;;;;;2.03;1.70;;;8.60;99.90;;;;;;6222174;23;20160;-93
2023/03/18 08:47:59;;;;;;;3.47;1.30;;;8.50;99.90;;;;;;6221800;23;20172;-93
2023/03/18 08:50:33;;;;;;;2.40;1.50;;;8.50;99.90;;;;;;6223025;23;20564;-93
2023/03/18 08:53:05;;;;;;;2.10;1.10;;;8.40;99.90;;;;;;6232176;23;20191;-94
2023/03/18 08:55:38;;;;;;;3.30;1.20;;;8.30;99.90;;;;;;6239211;23;20176;-94
2023/03/18 08:58:10;;;;;;;2.60;1.17;;;8.20;99.90;;;;;;6238457;23;20240;-92
2023/03/18 09:00:43;;;;;;;3.33;1.10;;;8.10;99.90;;;;;;6230693;23;20200;-94
2023/03/18 09:03:15;;;;;;;2.20;1.80;;;8.00;99.90;;;;;;6228838;23;20194;-92
2023/03/18 09:05:49;;;;;;;3.30;1.10;;;8.00;99.90;;;;;;6230831;23;20548;-95
2023/03/18 09:08:22;;;;;;;1.40;1.07;;;7.90;99.90;;;;;;6229046;23;20271;-96
2023/03/18 09:10:55;;;;;;;3.27;1.50;;;7.90;99.90;;;;;;6201195;23;20199;-95
2023/03/18 09:13:28;;;;;;;3.10;1.40;;;7.80;99.90;;;;;;6225267;23;20181;-96
2023/03/18 09:16:13;;;;;;;2.67;1.50;;;7.80;99.90;;;;;;6221851;23;20202;-96
2023/03/18 09:18:44;;;;;;;2.70;1.00;;;7.70;99.90;;;;;;6224781;23;20190;-94
2023/03/18 09:21:21;;;;;;;4.27;1.40;;;7.70;99.90;;;;;;6224792;23;20200;-94
2023/03/18 09:23:53;;;;;;;1.93;1.33;;;7.70;99.90;;;;;;6224820;23;20618;-94
2023/03/18 09:26:24;;;;;;;1.20;1.10;;;7.60;99.90;;;;;;6223107;23;20191;-94
2023/03/18 09:28:56;;;;;;;4.13;1.17;;;7.60;99.90;;;;;;6223589;23;20177;-95
2023/03/18 09:31:28;;;;;;;3.30;1.33;;;7.60;99.90;;;;;;6224456;23;20211;-93
2023/03/18 09:34:08;;;;;;;1.77;1.10;;;7.50;99.90;;;;;;6224461;23;20184;-95
2023/03/18 09:36:49;;;;;;;1.73;1.23;;;7.50;99.90;;;;;;6202601;23;20176;-94
2023/03/18 09:39:22;;;;;;;4.20;1.53;;;7.40;99.90;;;;;;6232800;23;20165;-94
2023/03/18 09:42:11;;;;;;;1.63;1.20;;;7.40;99.90;;;;;;6242130;23;20196;-92
2023/03/18 09:44:44;;;;;;;1.33;1.00;;;7.40;99.90;;;;;;6237705;23;20168;-93
2023/03/18 09:47:34;;;;;;;2.00;1.03;;;7.40;99.90;;;;;;6221257;23;20179;-93
2023/03/18 09:50:22;;;;;;;2.50;1.20;;;7.40;99.90;;;;;;6223769;23;20685;-92
2023/03/18 09:53:12;;;;;;;3.00;1.30;;;7.40;99.90;;;;;;6222057;23;20171;-93
2023/03/18 09:55:48;;;;;;;1.20;1.00;;;7.30;99.90;;;;;;6221182;23;20173;-93
2023/03/18 09:58:24;;;;;;;1.17;1.07;;;7.30;99.90;;;;;;6218803;23;20191;-93
2023/03/18 10:01:01;;;;;;;1.47;0.90;;;7.20;99.90;;;;;;6220017;23;20242;-93
2023/03/18 10:03:39;;;;;;;3.77;1.20;;;7.20;99.90;;;;;;6195224;23;20172;-94
2023/03/18 10:06:18;;;;;;;2.40;1.23;;;7.20;99.90;;;;;;6220824;23;20176;-92
2023/03/18 10:09:00;;;;;;;2.27;1.10;;;7.10;99.90;;;;;;6220718;23;20172;-92
2023/03/18 10:11:35;;;;;;;2.40;1.20;;;7.10;99.90;;;;;;6195890;23;20168;-93
2023/03/18 10:14:30;;;;;;;1.23;1.00;;;7.10;99.90;;;;;;6223379;23;20168;-95
2023/03/18 10:17:14;;;;;;;2.60;1.50;;;7.00;99.90;;;;;;6222903;23;20560;-93
2023/03/18 10:19:49;;;;;;;2.77;1.07;;;7.00;99.90;;;;;;6221947;23;20201;-95
2023/03/18 10:22:48;;;;;;;4.37;1.50;;;7.00;99.90;;;;;;6229674;23;20200;-95
2023/03/18 10:25:28;;;;;;;4.10;1.40;;;7.00;99.90;;;;;;6240096;23;20191;-95
2023/03/18 10:28:37;;;;;;;1.37;1.10;;;7.00;99.90;;;;;;6239539;23;20164;-94
2023/03/18 10:31:19;;;;;;;2.87;1.37;;;7.00;99.90;;;;;;6121494;23;20194;-95
2023/03/18 10:33:59;;;;;;;2.07;1.37;;;7.00;99.90;;;;;;6230773;23;20232;-95
2023/03/18 10:36:39;;;;;;;1.73;1.20;;;7.00;99.90;;;;;;6242229;23;20190;-94
2023/03/18 10:39:17;;;;;;;2.67;1.20;;;7.00;99.90;;;;;;6241932;23;20168;-92
2023/03/18 10:41:55;;;;;;;1.93;1.10;;;6.90;99.90;;;;;;6242728;23;20184;-95
2023/03/18 10:44:30;;;;;;;3.93;1.53;;;6.90;99.90;;;;;;6242627;23;20168;-95
2023/03/18 10:47:11;;;;;;;1.90;1.43;;;6.80;99.90;;;;;;6226713;23;20251;-93
2023/03/18 10:49:49;;;;;;;2.80;1.80;;;6.80;99.90;;;;;;6219501;23;20165;-93
2023/03/18 10:52:29;;;;;;;5.47;2.03;;;6.80;99.90;;;;;;6221483;23;20222;-93
2023/03/18 10:55:00;;;;;;;2.43;1.63;;;6.80;99.90;;;;;;6218488;23;20622;-92
2023/03/18 10:57:35;;;;;;;1.93;1.50;;;6.70;99.90;;;;;;6219033;23;20981;-92
2023/03/18 11:00:17;;;;;;;3.93;1.40;;;6.70;99.90;;;;;;6220314;23;20641;-93
2023/03/18 11:02:49;;;;;;;3.83;1.70;;;6.70;99.90;;;;;;6220102;23;20196;-93
2023/03/18 11:05:26;;;;;;;4.20;1.47;;;6.60;99.90;;;;;;6223287;23;20180;-94
2023/03/18 11:08:02;;;;;;;2.90;1.20;;;6.60;99.90;;;;;;6219108;23;20236;-94
2023/03/18 11:10:38;;;;;;;2.37;1.50;;;6.50;99.90;;;;;;6218601;23;20171;-92
2023/03/18 11:13:20;;;;;;;2.37;1.33;;;6.50;99.90;;;;;;6219171;23;20180;-93
2023/03/18 11:15:55;;;;;;;1.70;1.20;;;6.40;99.90;;;;;;6195059;23;20614;-96
2023/03/18 11:18:31;;;;;;;2.77;1.57;;;6.40;99.90;;;;;;6219628;23;20183;-93
2023/03/18 11:21:11;;;;;;;2.90;1.60;;;6.40;99.90;;;;;;6221792;23;20179;-93
2023/03/18 11:24:07;;;;;;;3.07;1.37;;;6.40;99.90;;;;;;6218855;23;20551;-93
2023/03/18 11:26:54;;;;;;;2.00;1.10;;;6.40;99.90;;;;;;6219257;23;20230;-93
2023/03/18 11:29:33;;;;;;;1.77;1.40;;;6.30;99.90;;;;;;6221670;23;20207;-94
2023/03/18 11:32:06;;;;;;;5.30;1.47;;;6.30;99.90;;;;;;6221922;23;20172;-94
2023/03/18 11:34:40;;;;;;;2.53;1.40;;;6.20;99.90;;;;;;6221449;23;20203;-93
2023/03/18 11:37:13;;;;;;;4.70;1.40;;;6.10;99.90;;;;;;6194803;23;20168;-94
2023/03/18 11:39:45;;;;;;;2.30;1.50;;;6.10;99.90;;;;;;6222450;23;20172;-94
2023/03/18 11:42:21;;;;;;;1.60;1.13;;;6.10;99.90;;;;;;6223340;23;20192;-94
2023/03/18 11:45:04;;;;;;;1.57;1.30;;;6.00;99.90;;;;;;6197866;23;20238;-94
2023/03/18 11:47:37;;;;;;;2.07;1.40;;;6.00;99.90;;;;;;6222796;23;20226;-94
2023/03/18 11:50:20;;;;;;;3.87;1.30;;;6.00;99.90;;;;;;6230924;23;20457;-93
2023/03/18 11:53:00;;;;;;;1.53;1.33;;;5.90;99.90;;;;;;6241548;23;20199;-93
2023/03/18 11:55:40;;;;;;;1.63;1.20;;;5.90;99.90;;;;;;6237297;23;20594;-93
2023/03/18 11:58:53;;;;;;;2.50;1.37;;;5.80;99.90;;;;;;6218618;23;20184;-92
2023/03/18 12:01:36;;;;;;;2.03;1.30;;;5.80;99.90;;;;;;6218854;23;20180;-91
2023/03/18 12:04:47;;;;;;;2.80;1.23;;;5.70;99.90;;;;;;6219435;23;20172;-91
2023/03/18 12:07:41;;;;;;;1.97;1.30;;;5.70;99.90;;;;;;6212516;23;20192;-93
2023/03/18 12:10:22;;;;;;;3.10;1.60;;;5.60;99.90;;;;;;6219801;23;20176;-92
2023/03/18 12:13:05;;;;;;;2.93;1.37;;;5.60;99.90;;;;;;6221588;23;20160;-93
2023/03/18 12:15:46;;;;;;;4.17;1.60;;;5.50;99.90;;;;;;6221010;23;20168;-92
2023/03/18 12:18:49;;;;;;;1.97;1.43;;;5.50;99.90;;;;;;6220922;23;20168;-94
2023/03/18 12:21:44;;;;;;;2.33;1.63;;;5.50;99.90;;;;;;6215061;23;20717;-91
2023/03/18 12:24:40;;;;;;;2.73;1.60;;;5.50;99.90;;;;;;6195843;23;20645;-93
2023/03/18 12:27:20;;;;;;;2.60;1.50;;;5.40;99.90;;;;;;6223084;23;20231;-93
2023/03/18 12:30:18;;;;;;;2.27;1.70;;;5.40;99.90;;;;;;6225940;23;20235;-94
2023/03/18 12:33:00;;;;;;;3.57;1.77;;;5.40;99.90;;;;;;6230603;23;20229;-93
2023/03/18 12:36:01;;;;;;;3.47;1.47;;;5.40;99.90;;;;;;6223862;23;20222;-94
2023/03/18 12:38:58;;;;;;;2.40;1.60;;;5.40;99.90;;;;;;6220397;23;20183;-94
2023/03/18 12:41:37;;;;;;;2.50;1.60;;;5.40;99.90;;;;;;6182189;23;20176;-94
2023/03/18 12:44:23;;;;;;;2.50;1.40;;;5.40;99.90;;;;;;6196380;23;20195;-92
2023/03/18 12:47:00;;;;;;;6.10;1.97;;;5.40;99.90;;;;;;6198365;23;20214;-92
2023/03/18 12:49:36;;;;;;;4.93;1.80;;;5.40;99.90;;;;;;6221111;23;20243;-94
2023/03/18 12:52:16;;;;;;;4.30;1.87;;;5.30;99.90;;;;;;6195116;23;20646;-93
2023/03/18 12:54:52;;;;;;;2.77;1.70;;;5.30;99.90;;;;;;6220140;23;20202;-93
2023/03/18 12:57:34;;;;;;;2.67;1.80;;;5.30;99.90;;;;;;6192587;23;20231;-92
2023/03/18 13:00:15;;;;;;;3.77;2.03;;;5.30;99.90;;;;;;6220759;23;20168;-91
2023/03/18 13:02:59;;;;;;;3.23;2.10;;;5.30;99.90;;;;;;6219411;23;20245;-88
2023/03/18 13:05:40;;;;;;;4.73;1.87;;;5.30;99.90;;;;;;6221442;23;20439;-92
2023/03/18 13:08:52;;;;;;;4.33;2.30;;;5.30;99.90;;;;;;6218177;23;20180;-93
2023/03/18 13:11:39;;;;;;;3.10;1.90;;;5.30;99.90;;;;;;6218390;23;20173;-93
2023/03/18 13:14:18;;;;;;;3.30;2.00;;;5.30;99.90;;;;;;6220972;23;20252;-93
2023/03/18 13:16:50;;;;;;;2.20;1.90;;;5.20;99.90;;;;;;6221220;23;20366;-92
2023/03/18 13:19:25;;;;;;;2.63;1.57;;;5.20;99.90;;;;;;6218126;23;20176;-92
2023/03/18 13:22:08;;;;;;;3.00;1.70;;;5.10;99.90;;;;;;6220010;23;20226;-93
2023/03/18 13:25:01;;;;;;;3.83;2.10;;;5.10;99.90;;;;;;6219525;23;20168;-94
2023/03/18 13:27:49;;;;;;;2.77;2.27;;;5.10;99.90;;;;;;6220371;23;20187;-94
2023/03/18 13:30:29;;;;;;;2.80;1.87;;;5.00;99.90;;;;;;6219363;23;20177;-92
2023/03/18 13:33:36;;;;;;;3.00;1.90;;;4.90;99.90;;;;;;6219487;23;20180;-93
2023/03/18 13:36:24;;;;;;;2.43;2.10;;;4.90;99.90;;;;;;6219730;23;20227;-92
2023/03/18 13:39:14;;;;;;;2.60;1.83;;;4.80;99.90;;;;;;6217902;23;20168;-92
2023/03/18 13:42:19;;;;;;;2.70;1.80;;;4.80;99.90;;;;;;6222326;23;20697;-93
2023/03/18 13:44:59;;;;;;;6.50;2.17;;;4.70;99.90;;;;;;6226270;23;20533;-93
2023/03/18 13:47:34;;;;;;;5.90;2.30;;;4.70;99.90;;;;;;6218827;23;20173;-94
2023/03/18 13:50:07;;;;;;;2.47;1.87;;;4.60;99.90;;;;;;6221256;23;20180;-92
2023/03/18 13:52:44;;;;;;;4.10;2.20;;;4.60;99.90;;;;;;6224074;23;20195;-92
2023/03/18 13:55:27;;;;;;;2.70;2.00;;;4.50;99.90;;;;;;6238180;23;20194;-93
2023/03/18 13:58:20;;;;;;;3.77;1.87;;;4.50;99.90;;;;;;6216409;23;20172;-91
2023/03/18 14:01:14;;;;;;;2.83;2.00;;;4.50;99.90;;;;;;6234484;23;20210;-93
2023/03/18 14:03:58;;;;;;;3.50;2.13;;;4.50;99.90;;;;;;6221757;23;20192;-93